Alghero-Fertilia Airport


Codes: LIEA/AHO
Name: Alghero-Fertilia Airport
City: Alghero
Country: Italy
Elevation: 87 ft.
Website:
Wikipedia:

Photos at Alghero-Fertilia Airport


   Photos courtesy of SpottingLog. You can add your own sightings and photos by signing up for a free trial today.



No photos found.

Weather at Alghero-Fertilia Airport


Time (UTC)DescriptionTempratureWindCloud coverageVisibilityPressureHumidity
16-Jun-2024 09:00Clear Sky24°C9 mph, NW0%10000m1013hPa57%
16-Jun-2024 12:00Scattered Clouds24°C11 mph, NW26%10000m1013hPa56%
16-Jun-2024 15:00Clear Sky24°C9 mph, NW9%10000m1014hPa56%
16-Jun-2024 18:00Few Clouds22°C7 mph, N11%10000m1014hPa55%
16-Jun-2024 21:00Few Clouds19°C7 mph, NE23%10000m1015hPa64%
17-Jun-2024 00:00Scattered Clouds19°C4 mph, NE29%10000m1015hPa60%
17-Jun-2024 03:00Clear Sky19°C4 mph, E0%10000m1015hPa60%
17-Jun-2024 06:00Clear Sky22°C2 mph, SE0%10000m1016hPa54%
17-Jun-2024 09:00Clear Sky25°C2 mph, SE0%10000m1016hPa49%
17-Jun-2024 12:00Clear Sky27°C7 mph, NW0%10000m1015hPa44%
17-Jun-2024 15:00Clear Sky28°C7 mph, N0%10000m1014hPa44%
17-Jun-2024 18:00Clear Sky26°C4 mph, NE0%10000m1014hPa54%
17-Jun-2024 21:00Clear Sky23°C4 mph, E0%10000m1014hPa61%
18-Jun-2024 00:00Clear Sky23°C2 mph, SE0%10000m1014hPa55%
18-Jun-2024 03:00Clear Sky22°C7 mph, NE0%10000m1013hPa58%
18-Jun-2024 06:00Clear Sky26°C7 mph, NE0%10000m1013hPa49%
18-Jun-2024 09:00Clear Sky30°C4 mph, SW0%10000m1013hPa42%
18-Jun-2024 12:00Clear Sky31°C7 mph, NW3%10000m1013hPa43%
18-Jun-2024 15:00Clear Sky32°C2 mph, SW0%10000m1013hPa40%
18-Jun-2024 18:00Clear Sky29°C4 mph, SW0%10000m1013hPa51%
18-Jun-2024 21:00Clear Sky24°C7 mph, S1%10000m1015hPa64%
19-Jun-2024 00:00Clear Sky23°C4 mph, SE2%10000m1014hPa66%
19-Jun-2024 03:00Clear Sky22°C2 mph, NE2%10000m1015hPa61%
19-Jun-2024 06:00Scattered Clouds25°C2 mph, NE31%10000m1015hPa49%
19-Jun-2024 09:00Overcast Clouds29°C9 mph, SW97%10000m1016hPa45%
19-Jun-2024 12:00Overcast Clouds31°C9 mph, N99%10000m1015hPa45%
19-Jun-2024 15:00Overcast Clouds29°C7 mph, NW100%10000m1015hPa52%
19-Jun-2024 18:00Broken Clouds27°C7 mph, N74%10000m1016hPa55%
19-Jun-2024 21:00Clear Sky23°C7 mph, NE6%10000m1016hPa73%
20-Jun-2024 00:00Broken Clouds24°C7 mph, S54%10000m1016hPa66%
20-Jun-2024 03:00Broken Clouds26°C9 mph, E73%10000m1014hPa51%
20-Jun-2024 06:00Broken Clouds31°C4 mph, E75%10000m1014hPa34%
20-Jun-2024 09:00Broken Clouds33°C11 mph, W73%10000m1015hPa37%
20-Jun-2024 12:00Overcast Clouds34°C9 mph, W86%10000m1015hPa39%
20-Jun-2024 15:00Broken Clouds30°C4 mph, SW57%10000m1015hPa49%
20-Jun-2024 18:00Scattered Clouds28°C4 mph, SW49%10000m1015hPa51%
20-Jun-2024 21:00Broken Clouds25°C4 mph, NW66%10000m1015hPa54%
21-Jun-2024 00:00Broken Clouds24°C9 mph, SE75%10000m1016hPa72%
21-Jun-2024 03:00Broken Clouds22°C2 mph, SW82%10000m1016hPa76%
21-Jun-2024 06:00Broken Clouds26°C7 mph, E82%10000m1015hPa58%